Tlc Commander — WCY6477 — position and weather

sailwx.info

Track history (hours):
 
Tides and Currents Weather Stations Pressure Air Temp Water Temp Dewpoint Dewpoint Depression Visibility Wind Speed Wind Dir Waves Ship Positions

Tlc Commander

Owner: TLC MARINE SERVICE INC, LOCKPORT, LA. More information available from US FCC via Universal Licensing System and Coast Guard Vessel Documentation Center.

Last reported at 2017-Nov-12 05:08 UTC. Time now 2017-Nov-21 10:22 UTC.
Position N 29°27' W 094°41'.
Warning: this ship's position is 9 days out of date.

; draft 5.5 m.

Type: Tug. MMSI: 367006040.

Date/timePositionNaut miles runAvg speedWind from/ knotsBaromVisibWave heightAir tempDewpointWater temp
2017-Nov-12 05:08N 29°27' W 094°41'1 3.9
2017-Nov-12 04:59N 29°27' W 094°42'12 2.3
2017-Nov-11 23:55N 29°32' W 094°54'2 3.6
2017-Nov-11 23:30N 29°33' W 094°55'2 3.4
2017-Nov-11 23:00N 29°35' W 094°56'2 3.3
2017-Nov-11 22:30N 29°36' W 094°57'2 2.2
2017-Nov-11 21:46N 29°38' W 094°57'0 0.1
2017-Nov-11 21:29N 29°38' W 094°58'0 0.2
2017-Nov-11 20:59N 29°37' W 094°58'0 0.6
2017-Nov-11 20:30N 29°38' W 094°57'1 1.2
2017-Nov-11 20:00N 29°37' W 094°58'2 3.1
2017-Nov-11 19:30N 29°37' W 094°59'2 4.1
2017-Nov-11 19:00N 29°38' W 094°57'0 0.0
2017-Nov-11 18:30N 29°38' W 094°57'0 0.0
2017-Nov-11 17:57N 29°38' W 094°57'0 0.6
2017-Nov-11 17:30N 29°38' W 094°58'0 0.5
2017-Nov-11 17:00N 29°38' W 094°57'0 0.0
2017-Nov-11 16:30N 29°38' W 094°57'0 0.0
2017-Nov-11 15:59N 29°38' W 094°57'0 0.0
2017-Nov-11 15:30N 29°38' W 094°57'0 0.0
2017-Nov-11 15:00N 29°38' W 094°57'0 0.0
2017-Nov-11 14:30N 29°38' W 094°57'0 0.1
2017-Nov-11 14:00N 29°38' W 094°57'0 0.1
2017-Nov-11 13:30N 29°38' W 094°57'0 0.0
2017-Nov-11 13:00N 29°38' W 094°57'0 0.5
2017-Nov-11 12:30N 29°38' W 094°58'3 5.9
2017-Nov-11 12:00N 29°37' W 095°01'0 0.0
2017-Nov-11 11:30N 29°37' W 095°01'0 0.0
2017-Nov-11 11:00N 29°37' W 095°01'0 0.0
2017-Nov-11 10:30N 29°37' W 095°01'0 0.0
2017-Nov-11 10:00N 29°37' W 095°01'0 0.0
2017-Nov-11 09:30N 29°37' W 095°01'0 0.0
2017-Nov-11 09:00N 29°37' W 095°01'0 0.0
2017-Nov-11 08:30N 29°37' W 095°01'0 0.0
2017-Nov-11 08:00N 29°37' W 095°01'0 0.0
2017-Nov-11 07:30N 29°37' W 095°01'0 0.0
2017-Nov-11 07:00N 29°37' W 095°01'0 0.0
2017-Nov-11 06:30N 29°37' W 095°01'0 0.0
2017-Nov-11 06:00N 29°37' W 095°01'0 0.0
2017-Nov-11 05:30N 29°37' W 095°01'0 0.0
2017-Nov-11 05:00N 29°37' W 095°01'0 0.0
2017-Nov-11 04:30N 29°37' W 095°01'0 0.0
2017-Nov-11 04:00N 29°37' W 095°01'0 0.0
2017-Nov-11 03:30N 29°37' W 095°01'0 0.0
2017-Nov-11 03:00N 29°37' W 095°01'0 0.0
2017-Nov-11 02:30N 29°37' W 095°01'0 0.0
2017-Nov-11 02:00N 29°37' W 095°01'0 0.0
2017-Nov-11 01:30N 29°37' W 095°01'0 0.0
2017-Nov-11 01:00N 29°37' W 095°01'0 0.0
2017-Nov-11 00:30N 29°37' W 095°01'0 0.0
2017-Nov-11 00:00N 29°37' W 095°01'0 0.0
2017-Nov-10 23:30N 29°37' W 095°01'3 5.4
2017-Nov-10 22:58N 29°38' W 094°58'0 0.5
2017-Nov-10 22:30N 29°38' W 094°57'0 0.0
2017-Nov-10 21:57N 29°38' W 094°57'0 0.4
2017-Nov-10 21:30N 29°38' W 094°57'0 0.1
2017-Nov-10 21:00N 29°38' W 094°57'0 0.4
2017-Nov-10 20:30N 29°38' W 094°57'0 0.1
2017-Nov-10 19:44N 29°38' W 094°57'0 1.2
2017-Nov-10 19:30N 29°38' W 094°58'2 4.0
2017-Nov-10 19:00N 29°37' W 094°60'2 4.5
2017-Nov-10 18:29N 29°38' W 094°57'0 0.0
2017-Nov-10 17:49N 29°38' W 094°57'0 0.0
2017-Nov-10 17:28N 29°38' W 094°57'0 0.0
2017-Nov-10 16:59N 29°38' W 094°57'0 0.0
2017-Nov-10 16:28N 29°38' W 094°57'0 0.0
2017-Nov-10 15:55N 29°38' W 094°57'0 0.0
2017-Nov-10 15:21N 29°38' W 094°57'0 0.1
2017-Nov-10 14:58N 29°38' W 094°57'0 0.2
2017-Nov-10 14:30N 29°38' W 094°57'0 0.2
2017-Nov-10 14:00N 29°38' W 094°57'0 0.0
2017-Nov-10 13:29N 29°38' W 094°57'0 0.0
2017-Nov-10 12:59N 29°38' W 094°57'0 0.0
2017-Nov-10 12:29N 29°38' W 094°57'0 0.0
2017-Nov-10 12:00N 29°38' W 094°57'0 0.0
2017-Nov-10 11:24N 29°38' W 094°57'0 0.0
2017-Nov-10 10:59N 29°38' W 094°57'0 0.0
2017-Nov-10 10:25N 29°38' W 094°57'0 0.0
2017-Nov-10 09:59N 29°38' W 094°57'0 0.0
2017-Nov-10 09:10N 29°38' W 094°57'0 0.0
2017-Nov-10 08:53N 29°38' W 094°57'0 0.0
2017-Nov-10 08:29N 29°38' W 094°57'0 0.0
2017-Nov-10 07:56N 29°38' W 094°57'0 0.0
2017-Nov-10 07:30N 29°38' W 094°57'0 0.0
2017-Nov-10 06:48N 29°38' W 094°57'0 0.0
2017-Nov-10 06:28N 29°38' W 094°57'0 0.0
2017-Nov-10 06:00N 29°38' W 094°57'0 0.0
2017-Nov-10 05:30N 29°38' W 094°57'0 0.0
2017-Nov-10 05:00N 29°38' W 094°57'0 0.0
2017-Nov-10 04:29N 29°38' W 094°57'0 0.0
2017-Nov-10 03:58N 29°38' W 094°57'0 0.0
2017-Nov-10 03:27N 29°38' W 094°57'0 0.0
2017-Nov-10 02:59N 29°38' W 094°57'0 0.0
2017-Nov-10 02:29N 29°38' W 094°57'0 0.0
2017-Nov-10 01:57N 29°38' W 094°57'0 0.0
2017-Nov-10 01:30N 29°38' W 094°57'0 0.0
2017-Nov-10 01:00N 29°38' W 094°57'0 0.0
2017-Nov-10 00:22N 29°38' W 094°57'0 0.0
2017-Nov-09 23:58N 29°38' W 094°57'0 0.0
2017-Nov-09 23:30N 29°38' W 094°57'0 0.1
2017-Nov-09 22:58N 29°38' W 094°57'1 2.7
2017-Nov-09 22:30N 29°37' W 094°58'2 4.1
2017-Nov-09 22:00N 29°37' W 095°01'0 0.0
2017-Nov-09 21:30N 29°37' W 095°01'2 3.8
2017-Nov-09 21:00N 29°37' W 094°59'1 2.9
2017-Nov-09 20:30N 29°38' W 094°57'0 0.0
2017-Nov-09 19:57N 29°38' W 094°57'0 0.0
2017-Nov-09 19:30N 29°38' W 094°57'0 0.0
2017-Nov-09 19:00N 29°38' W 094°57'0 0.0
2017-Nov-09 18:30N 29°38' W 094°57'2 4.4
2017-Nov-09 18:00N 29°37' W 094°60'1 2.7
2017-Nov-09 17:30N 29°37' W 094°58'1 1.5
2017-Nov-09 16:55N 29°38' W 094°57'0 0.0
2017-Nov-09 16:28N 29°38' W 094°57'2 4.1
2017-Nov-09 16:00N 29°37' W 094°59'1 2.9
2017-Nov-09 15:30N 29°37' W 095°01'3 5.8
2017-Nov-09 15:00N 29°38' W 094°58'0 0.6
2017-Nov-09 14:30N 29°38' W 094°57'0 0.0
2017-Nov-09 14:00N 29°38' W 094°57'0 0.0
2017-Nov-09 13:30N 29°38' W 094°57'0 0.0
2017-Nov-09 12:57N 29°38' W 094°57'0 0.0
2017-Nov-09 12:29N 29°38' W 094°57'0 0.0
2017-Nov-09 12:00N 29°38' W 094°57'0 0.0
2017-Nov-09 11:29N 29°38' W 094°57'0 0.0
2017-Nov-09 11:00N 29°38' W 094°57'0 0.0
2017-Nov-09 10:30N 29°38' W 094°57'0 0.0
2017-Nov-09 09:59N 29°38' W 094°57'0 0.0
2017-Nov-09 09:30N 29°38' W 094°57'0 0.0
2017-Nov-09 09:00N 29°38' W 094°57'0 0.0
2017-Nov-09 08:27N 29°38' W 094°57'0 0.0
2017-Nov-09 07:58N 29°38' W 094°57'0 0.0
2017-Nov-09 07:30N 29°38' W 094°57'0 0.0
2017-Nov-09 06:56N 29°38' W 094°57'0 0.0
2017-Nov-09 06:28N 29°38' W 094°57'0 0.0
2017-Nov-09 05:58N 29°38' W 094°57'0 0.3
2017-Nov-09 05:30N 29°38' W 094°57'0 0.1
2017-Nov-09 02:36N 29°38' W 094°57'0 0.0
2017-Nov-09 02:30N 29°38' W 094°57'0 0.0
2017-Nov-09 02:00N 29°38' W 094°57'0 0.0
2017-Nov-09 01:30N 29°38' W 094°57'0 0.0
2017-Nov-09 00:40N 29°38' W 094°57'0 0.0
2017-Nov-09 00:30N 29°38' W 094°57'1 2.9
2017-Nov-09 00:01N 29°37' W 094°59'0 0.1
2017-Nov-08 23:30N 29°37' W 094°59'1 2.8
2017-Nov-08 22:59N 29°38' W 094°57'0 0.0
2017-Nov-08 22:30N 29°38' W 094°57'0 0.7
2017-Nov-08 22:00N 29°38' W 094°57'1 1.8
2017-Nov-08 21:30N 29°37' W 094°58'2 4.9
2017-Nov-08 21:00N 29°37' W 095°01'0 0.4
2017-Nov-08 20:31N 29°37' W 095°01'0 0.0
2017-Nov-08 20:00N 29°37' W 095°01'0 0.0
2017-Nov-08 19:30N 29°37' W 095°01'0 0.0
2017-Nov-08 19:00N 29°37' W 095°01'0 0.0
2017-Nov-08 18:30N 29°37' W 095°01'1 1.8
2017-Nov-08 18:00N 29°37' W 094°60'2 3.9
2017-Nov-08 17:31N 29°37' W 094°58'3 5.6
2017-Nov-08 17:00N 29°37' W 095°01'0 0.0
2017-Nov-08 16:31N 29°37' W 095°01'0 0.0
2017-Nov-08 16:00N 29°37' W 095°01'0 0.0
2017-Nov-08 15:30N 29°37' W 095°01'0 0.0
2017-Nov-08 15:01N 29°37' W 095°01'0 0.0
2017-Nov-08 14:30N 29°37' W 095°01'3 5.8
2017-Nov-08 13:58N 29°38' W 094°57'2 3.7
2017-Nov-08 13:30N 29°37' W 094°59'2 3.1
2017-Nov-08 13:00N 29°37' W 095°01'0 0.0
2017-Nov-08 12:31N 29°37' W 095°01'0 0.0
2017-Nov-08 12:00N 29°37' W 095°01'0 0.0
2017-Nov-08 11:31N 29°37' W 095°01'0 0.0
2017-Nov-08 11:00N 29°37' W 095°01'0 0.0
2017-Nov-08 10:31N 29°37' W 095°01'0 0.0
2017-Nov-08 10:00N 29°37' W 095°01'0 0.0
2017-Nov-08 09:31N 29°37' W 095°01'0 0.0
2017-Nov-08 09:00N 29°37' W 095°01'0 0.0
2017-Nov-08 08:30N 29°37' W 095°01'0 0.0
2017-Nov-08 08:00N 29°37' W 095°01'0 0.0
2017-Nov-08 07:30N 29°37' W 095°01'0 0.0
2017-Nov-08 07:01N 29°37' W 095°01'0 0.0
2017-Nov-08 06:30N 29°37' W 095°01'0 0.0
2017-Nov-08 06:00N 29°37' W 095°01'0 0.0
2017-Nov-08 05:31N 29°37' W 095°01'0 0.0
2017-Nov-08 05:00N 29°37' W 095°01'0 0.0
2017-Nov-08 04:30N 29°37' W 095°01'0 0.0
2017-Nov-08 04:01N 29°37' W 095°01'0 0.0
2017-Nov-08 03:30N 29°37' W 095°01'0 0.0
2017-Nov-08 03:01N 29°37' W 095°01'0 0.0
2017-Nov-08 02:30N 29°37' W 095°01'0 0.0
2017-Nov-08 02:01N 29°37' W 095°01'0 0.0
2017-Nov-08 01:30N 29°37' W 095°01'0 0.0
2017-Nov-08 01:00N 29°37' W 095°01'0 0.0
2017-Nov-08 00:30N 29°37' W 095°01'0 0.0
2017-Nov-08 00:00N 29°37' W 095°01'0 0.0
2017-Nov-07 23:30N 29°37' W 095°01'0 0.0
2017-Nov-07 23:01N 29°37' W 095°01'0 0.0
2017-Nov-07 22:30N 29°37' W 095°01'0 0.0
2017-Nov-07 22:01N 29°37' W 095°01'0 0.0
2017-Nov-07 21:31N 29°37' W 095°01'0 0.0
2017-Nov-07 21:00N 29°37' W 095°01'0 0.0
2017-Nov-07 20:30N 29°37' W 095°01'0 0.0
2017-Nov-07 20:00N 29°37' W 095°01'0 0.0
2017-Nov-07 19:30N 29°37' W 095°01'0 0.0
2017-Nov-07 19:01N 29°37' W 095°01'0 0.0
2017-Nov-07 18:31N 29°37' W 095°01'0 0.0
2017-Nov-07 18:00N 29°37' W 095°01'0 0.0
2017-Nov-07 17:30N 29°37' W 095°01'0 0.0
2017-Nov-07 17:00N 29°37' W 095°01'0 0.0
2017-Nov-07 16:31N 29°37' W 095°01'0 0.0
2017-Nov-07 16:00N 29°37' W 095°01'0 0.0
2017-Nov-07 15:31N 29°37' W 095°01'0 0.0
2017-Nov-07 15:01N 29°37' W 095°01'0 0.0
2017-Nov-07 14:30N 29°37' W 095°01'0 0.0
2017-Nov-07 14:00N 29°37' W 095°01'0 0.0
2017-Nov-07 13:31N 29°37' W 095°01'0 0.0
2017-Nov-07 13:01N 29°37' W 095°01'0 0.0
2017-Nov-07 12:31N 29°37' W 095°01'0 0.0
2017-Nov-07 12:01N 29°37' W 095°01'0 0.0
2017-Nov-07 11:30N 29°37' W 095°01'0 0.0
2017-Nov-07 11:01N 29°37' W 095°01'0 0.0
2017-Nov-07 10:31N 29°37' W 095°01'0 0.0
2017-Nov-07 10:00N 29°37' W 095°01'0 0.0
2017-Nov-07 09:30N 29°37' W 095°01'0 0.0
2017-Nov-07 09:01N 29°37' W 095°01'0 0.0
2017-Nov-07 08:30N 29°37' W 095°01'0 0.0
2017-Nov-07 08:01N 29°37' W 095°01'0 0.0
2017-Nov-07 07:30N 29°37' W 095°01'0 0.0
2017-Nov-07 07:01N 29°37' W 095°01'0 0.0
2017-Nov-07 06:31N 29°37' W 095°01'0 0.0
2017-Nov-07 06:01N 29°37' W 095°01'0 0.0
2017-Nov-07 05:31N 29°37' W 095°01'0 0.0
2017-Nov-07 05:01N 29°37' W 095°01'0 0.0
2017-Nov-07 04:30N 29°37' W 095°01'0 0.0
2017-Nov-07 04:01N 29°37' W 095°01'0 0.0
2017-Nov-07 03:31N 29°37' W 095°01'0 0.0
2017-Nov-07 03:00N 29°37' W 095°01'0 0.0
2017-Nov-07 02:31N 29°37' W 095°01'0 0.0
2017-Nov-07 02:00N 29°37' W 095°01'0 0.0
2017-Nov-07 01:31N 29°37' W 095°01'0 0.0
2017-Nov-07 01:00N 29°37' W 095°01'0 0.0
2017-Nov-07 00:31N 29°37' W 095°01'0 0.0
2017-Nov-07 00:01N 29°37' W 095°01'0 0.0
2017-Nov-06 23:30N 29°37' W 095°01'0 0.0
2017-Nov-06 23:01N 29°37' W 095°01'0 0.0
2017-Nov-06 22:30N 29°37' W 095°01'0 0.0
2017-Nov-06 22:01N 29°37' W 095°01'0 0.2
2017-Nov-06 21:31N 29°37' W 095°01'1 1.6
2017-Nov-06 21:01N 29°37' W 094°60'1 1.8
2017-Nov-06 20:31N 29°37' W 095°01'3 0.2
2017-Nov-06 02:28N 29°38' W 094°57'0 0.0
2017-Nov-06 02:00N 29°38' W 094°57'0 0.0
2017-Nov-06 01:29N 29°38' W 094°57'0 0.0
2017-Nov-06 01:00N 29°38' W 094°57'0 0.0
2017-Nov-06 00:26N 29°38' W 094°57'0 0.0
2017-Nov-05 23:59N 29°38' W 094°57'0 0.0
2017-Nov-05 23:24N 29°38' W 094°57'0 0.0
2017-Nov-05 23:00N 29°38' W 094°57'0 0.0
2017-Nov-05 22:29N 29°38' W 094°57'0 0.7
2017-Nov-05 22:01N 29°38' W 094°57'3 5.4
2017-Nov-05 21:31N 29°37' W 095°00'1 1.1
2017-Nov-05 21:00N 29°37' W 095°01'0 0.0
2017-Nov-05 20:30N 29°37' W 095°01'2 4.1
2017-Nov-05 20:01N 29°37' W 094°58'1 0.7
2017-Nov-05 18:09N 29°38' W 094°57'0 0.1
2017-Nov-05 17:59N 29°38' W 094°57'0 0.6
2017-Nov-05 17:30N 29°38' W 094°57'0 0.5
2017-Nov-05 16:59N 29°38' W 094°57'0 0.2
2017-Nov-05 16:30N 29°38' W 094°57'0 0.1
2017-Nov-05 15:57N 29°38' W 094°57'0 0.1
2017-Nov-05 15:30N 29°38' W 094°57'0 0.0
2017-Nov-05 14:58N 29°38' W 094°57'0 0.0
2017-Nov-05 14:31N 29°38' W 094°57'0 0.0
2017-Nov-05 14:00N 29°38' W 094°57'0 0.0
2017-Nov-05 13:31N 29°38' W 094°57'0 0.0
2017-Nov-05 12:59N 29°38' W 094°57'1 1.9
2017-Nov-05 12:31N 29°37' W 094°58'2 4.8
2017-Nov-05 12:01N 29°37' W 095°01'0 0.0
2017-Nov-05 11:31N 29°37' W 095°01'0 0.0
2017-Nov-05 11:01N 29°37' W 095°01'0 0.0
2017-Nov-05 10:31N 29°37' W 095°01'0 0.0
2017-Nov-05 10:00N 29°37' W 095°01'0 0.0
2017-Nov-05 09:30N 29°37' W 095°01'0 0.0
2017-Nov-05 09:00N 29°37' W 095°01'0 0.0
2017-Nov-05 08:30N 29°37' W 095°01'0 0.0
2017-Nov-05 08:01N 29°37' W 095°01'0 0.0
2017-Nov-05 07:30N 29°37' W 095°01'0 0.0
2017-Nov-05 07:01N 29°37' W 095°01'0 0.0
2017-Nov-05 06:30N 29°37' W 095°01'0 0.0
2017-Nov-05 06:01N 29°37' W 095°01'0 0.0
2017-Nov-05 05:31N 29°37' W 095°01'0 0.0
2017-Nov-05 05:00N 29°37' W 095°01'0 0.0
2017-Nov-05 04:31N 29°37' W 095°01'0 0.0
2017-Nov-05 04:01N 29°37' W 095°01'0 0.0
2017-Nov-05 03:31N 29°37' W 095°01'0 0.0
2017-Nov-05 03:00N 29°37' W 095°01'0 0.0
2017-Nov-05 02:31N 29°37' W 095°01'0 0.0
2017-Nov-05 02:01N 29°37' W 095°01'0 0.0
2017-Nov-05 01:31N 29°37' W 095°01'0 0.0
2017-Nov-05 01:01N 29°37' W 095°01'0 0.0
2017-Nov-05 00:31N 29°37' W 095°01'0 0.0
2017-Nov-05 00:01N 29°37' W 095°01'0 0.0
2017-Nov-04 23:31N 29°37' W 095°01'2 4.1
2017-Nov-04 23:01N 29°37' W 094°58'1 2.5
2017-Nov-04 22:30N 29°38' W 094°57'0 0.0
2017-Nov-04 22:00N 29°38' W 094°57'0 0.0
2017-Nov-04 21:31N 29°38' W 094°57'0 0.0
2017-Nov-04 21:00N 29°38' W 094°57'0 0.0
2017-Nov-04 20:29N 29°38' W 094°57'0 0.0
2017-Nov-04 19:58N 29°38' W 094°57'0 0.2
2017-Nov-04 19:30N 29°38' W 094°57'0 0.0
2017-Nov-04 19:00N 29°38' W 094°57'0 0.0
2017-Nov-04 18:19N 29°38' W 094°57'0 0.1
2017-Nov-04 17:56N 29°38' W 094°57'0 0.0
2017-Nov-04 17:30N 29°38' W 094°57'0 0.0
2017-Nov-04 17:00N 29°38' W 094°57'0 0.0
2017-Nov-04 16:30N 29°38' W 094°57'0 0.2
2017-Nov-04 16:01N 29°38' W 094°57'0 0.0
2017-Nov-04 15:31N 29°38' W 094°57'0 0.0
2017-Nov-04 15:00N 29°38' W 094°57'0 0.0
2017-Nov-04 14:30N 29°38' W 094°57'0 0.0
2017-Nov-04 14:00N 29°38' W 094°57'0 0.0
2017-Nov-04 13:28N 29°38' W 094°57'1 2.9
2017-Nov-04 13:00N 29°37' W 094°59'0 0.4
2017-Nov-04 12:30N 29°37' W 094°59'2 1.4
2017-Nov-04 11:25N 29°38' W 094°57'0 0.0
2017-Nov-04 05:30N 29°38' W 094°57'0 0.0
2017-Nov-04 04:24N 29°38' W 094°57'0 0.0
2017-Nov-04 04:01N 29°38' W 094°57'0 0.0
2017-Nov-04 03:29N 29°38' W 094°57'0 0.0
2017-Nov-04 02:54N 29°38' W 094°57'0 0.0
2017-Nov-04 02:24N 29°38' W 094°57'0 0.0
2017-Nov-04 01:59N 29°38' W 094°57'0 0.0
2017-Nov-04 01:28N 29°38' W 094°57'0 0.0
2017-Nov-04 00:59N 29°38' W 094°57'0 0.0
2017-Nov-04 00:29N 29°38' W 094°57'0 0.0
2017-Nov-03 22:50N 29°38' W 094°57'0 0.0
2017-Nov-03 22:31N 29°38' W 094°57'0 0.0
2017-Nov-03 21:51N 29°38' W 094°57'0 0.0
2017-Nov-03 21:30N 29°38' W 094°57'0 0.0
2017-Nov-03 21:00N 29°38' W 094°57'0 0.0
2017-Nov-03 20:31N 29°38' W 094°57'0 0.0
2017-Nov-03 19:52N 29°38' W 094°57'0 0.0
2017-Nov-03 19:31N 29°38' W 094°57'0 0.0
2017-Nov-03 19:00N 29°38' W 094°57'0 0.0
2017-Nov-03 18:28N 29°38' W 094°57'0 0.0
2017-Nov-03 16:59N 29°38' W 094°57'0 0.0
2017-Nov-03 16:30N 29°38' W 094°57'1 2.3
2017-Nov-03 16:00N 29°37' W 094°58'2 4.4
2017-Nov-03 15:30N 29°37' W 095°01'0 0.0
2017-Nov-03 15:00N 29°37' W 095°01'0 0.0
2017-Nov-03 14:30N 29°37' W 095°01'0 0.0
2017-Nov-03 14:00N 29°37' W 095°01'2 3.4
2017-Nov-03 13:30N 29°37' W 094°59'1 1.0
2017-Nov-03 13:00N 29°37' W 094°58'2 4.5
2017-Nov-03 12:30N 29°37' W 095°01'0 0.1
2017-Nov-03 12:00N 29°37' W 095°01'0 0.0
2017-Nov-03 11:30N 29°37' W 095°01'0 0.0
2017-Nov-03 11:00N 29°37' W 095°01'0 0.0
2017-Nov-03 10:30N 29°37' W 095°01'0 0.0
2017-Nov-03 10:00N 29°37' W 095°01'0 0.0
2017-Nov-03 09:30N 29°37' W 095°01'0 0.0
2017-Nov-03 09:00N 29°37' W 095°01'0 0.0
2017-Nov-03 08:30N 29°37' W 095°01'0 0.0
2017-Nov-03 08:00N 29°37' W 095°01'0 0.0
2017-Nov-03 07:30N 29°37' W 095°01'0 0.0
2017-Nov-03 07:00N 29°37' W 095°01'0 0.0
2017-Nov-03 06:30N 29°37' W 095°01'0 0.0
2017-Nov-03 06:00N 29°37' W 095°01'0 0.0
2017-Nov-03 05:30N 29°37' W 095°01'0 0.0
2017-Nov-03 05:00N 29°37' W 095°01'0 0.0
2017-Nov-03 04:30N 29°37' W 095°01'0 0.0
2017-Nov-03 04:00N 29°37' W 095°01'0 0.0
2017-Nov-03 03:30N 29°37' W 095°01'0 0.0
2017-Nov-03 03:01N 29°37' W 095°01'0 0.0
2017-Nov-03 02:30N 29°37' W 095°01'0 0.0
2017-Nov-03 02:00N 29°37' W 095°01'0 0.0
2017-Nov-03 01:30N 29°37' W 095°01'0 0.0
2017-Nov-03 01:00N 29°37' W 095°01'0 0.0
2017-Nov-03 00:30N 29°37' W 095°01'0 0.0
2017-Nov-03 00:00N 29°37' W 095°01'0 0.0
2017-Nov-02 23:30N 29°37' W 095°01'1 1.7
2017-Nov-02 23:00N 29°37' W 094°60'2 4.5
2017-Nov-02 22:29N 29°38' W 094°57'0 0.2
2017-Nov-02 22:00N 29°38' W 094°57'0 0.0
2017-Nov-02 21:27N 29°38' W 094°57'0 0.0
2017-Nov-02 21:00N 29°38' W 094°57'0 0.0
2017-Nov-02 20:28N 29°38' W 094°57'0 0.0
2017-Nov-02 20:00N 29°38' W 094°57'1 1.1
2017-Nov-02 19:30N 29°38' W 094°58'0 0.8
2017-Nov-02 19:00N 29°38' W 094°58'3 5.7
2017-Nov-02 18:30N 29°40' W 094°59'2 2.9
2017-Nov-02 17:57N 29°42' W 094°60'0 0.6
2017-Nov-02 17:28N 29°42' W 094°59'0 0.2
2017-Nov-02 17:00N 29°42' W 094°59'0 0.2
2017-Nov-02 16:30N 29°42' W 094°59'0 0.2
2017-Nov-02 16:00N 29°41' W 094°59'1 1.8
2017-Nov-02 15:30N 29°41' W 094°59'1 2.0
2017-Nov-02 15:01N 29°40' W 094°58'1 2.4
2017-Nov-02 14:29N 29°38' W 094°58'1 1.7
2017-Nov-02 14:00N 29°38' W 094°57'0 0.3
2017-Nov-02 13:30N 29°38' W 094°57'0 0.0
2017-Nov-02 13:00N 29°38' W 094°57'2 4.6
2017-Nov-02 12:30N 29°37' W 094°60'0 0.2
2017-Nov-02 12:00N 29°37' W 094°60'2 4.0
2017-Nov-02 11:25N 29°38' W 094°57'0 0.3
2017-Nov-02 10:56N 29°38' W 094°57'0 0.0
2017-Nov-02 10:28N 29°38' W 094°57'0 0.0
2017-Nov-02 09:56N 29°38' W 094°57'0 0.0
2017-Nov-02 09:22N 29°38' W 094°57'0 0.0
2017-Nov-02 08:35N 29°38' W 094°57'0 0.0
2017-Nov-02 08:29N 29°38' W 094°57'0 0.0
2017-Nov-02 07:33N 29°38' W 094°57'0 0.0
2017-Nov-02 07:25N 29°38' W 094°57'0 0.0
2017-Nov-02 06:43N 29°38' W 094°57'0 0.0
2017-Nov-02 06:26N 29°38' W 094°57'0 0.0
2017-Nov-02 06:00N 29°38' W 094°57'0 0.0
2017-Nov-02 05:25N 29°38' W 094°57'  
Track history (hours):
 
Tides and Currents Weather Stations Pressure Air Temp Water Temp Dewpoint Dewpoint Depression Visibility Wind Speed Wind Dir Waves Ship Positions

Tlc Commander

Owner: TLC MARINE SERVICE INC, LOCKPORT, LA. More information available from US FCC via Universal Licensing System and Coast Guard Vessel Documentation Center.

Last reported at 2017-Nov-12 05:08 UTC. Time now 2017-Nov-21 10:22 UTC.
Position N 29°27' W 094°41'.
Warning: this ship's position is 9 days out of date.

; draft 5.5 m.

Type: Tug. MMSI: 367006040.

Date/timePositionNaut miles runAvg speedWind from/ knotsBaromVisibWave heightAir tempDewpointWater temp
2017-Nov-12 05:08N 29°27' W 094°41'1 3.9
2017-Nov-12 04:59N 29°27' W 094°42'12 2.3
2017-Nov-11 23:55N 29°32' W 094°54'2 3.6
2017-Nov-11 23:30N 29°33' W 094°55'2 3.4
2017-Nov-11 23:00N 29°35' W 094°56'2 3.3
2017-Nov-11 22:30N 29°36' W 094°57'2 2.2
2017-Nov-11 21:46N 29°38' W 094°57'0 0.1
2017-Nov-11 21:29N 29°38' W 094°58'0 0.2
2017-Nov-11 20:59N 29°37' W 094°58'0 0.6
2017-Nov-11 20:30N 29°38' W 094°57'1 1.2
2017-Nov-11 20:00N 29°37' W 094°58'2 3.1
2017-Nov-11 19:30N 29°37' W 094°59'2 4.1
2017-Nov-11 19:00N 29°38' W 094°57'0 0.0
2017-Nov-11 18:30N 29°38' W 094°57'0 0.0
2017-Nov-11 17:57N 29°38' W 094°57'0 0.6
2017-Nov-11 17:30N 29°38' W 094°58'0 0.5
2017-Nov-11 17:00N 29°38' W 094°57'0 0.0
2017-Nov-11 16:30N 29°38' W 094°57'0 0.0
2017-Nov-11 15:59N 29°38' W 094°57'0 0.0
2017-Nov-11 15:30N 29°38' W 094°57'0 0.0
2017-Nov-11 15:00N 29°38' W 094°57'0 0.0
2017-Nov-11 14:30N 29°38' W 094°57'0 0.1
2017-Nov-11 14:00N 29°38' W 094°57'0 0.1
2017-Nov-11 13:30N 29°38' W 094°57'0 0.0
2017-Nov-11 13:00N 29°38' W 094°57'0 0.5
2017-Nov-11 12:30N 29°38' W 094°58'3 5.9
2017-Nov-11 12:00N 29°37' W 095°01'0 0.0
2017-Nov-11 11:30N 29°37' W 095°01'0 0.0
2017-Nov-11 11:00N 29°37' W 095°01'0 0.0
2017-Nov-11 10:30N 29°37' W 095°01'0 0.0
2017-Nov-11 10:00N 29°37' W 095°01'0 0.0
2017-Nov-11 09:30N 29°37' W 095°01'0 0.0
2017-Nov-11 09:00N 29°37' W 095°01'0 0.0
2017-Nov-11 08:30N 29°37' W 095°01'0 0.0
2017-Nov-11 08:00N 29°37' W 095°01'0 0.0
2017-Nov-11 07:30N 29°37' W 095°01'0 0.0
2017-Nov-11 07:00N 29°37' W 095°01'0 0.0
2017-Nov-11 06:30N 29°37' W 095°01'0 0.0
2017-Nov-11 06:00N 29°37' W 095°01'0 0.0
2017-Nov-11 05:30N 29°37' W 095°01'0 0.0
2017-Nov-11 05:00N 29°37' W 095°01'0 0.0
2017-Nov-11 04:30N 29°37' W 095°01'0 0.0
2017-Nov-11 04:00N 29°37' W 095°01'0 0.0
2017-Nov-11 03:30N 29°37' W 095°01'0 0.0
2017-Nov-11 03:00N 29°37' W 095°01'0 0.0
2017-Nov-11 02:30N 29°37' W 095°01'0 0.0
2017-Nov-11 02:00N 29°37' W 095°01'0 0.0
2017-Nov-11 01:30N 29°37' W 095°01'0 0.0
2017-Nov-11 01:00N 29°37' W 095°01'0 0.0
2017-Nov-11 00:30N 29°37' W 095°01'0 0.0
2017-Nov-11 00:00N 29°37' W 095°01'0 0.0
2017-Nov-10 23:30N 29°37' W 095°01'3 5.4
2017-Nov-10 22:58N 29°38' W 094°58'0 0.5
2017-Nov-10 22:30N 29°38' W 094°57'0 0.0
2017-Nov-10 21:57N 29°38' W 094°57'0 0.4
2017-Nov-10 21:30N 29°38' W 094°57'0 0.1
2017-Nov-10 21:00N 29°38' W 094°57'0 0.4
2017-Nov-10 20:30N 29°38' W 094°57'0 0.1
2017-Nov-10 19:44N 29°38' W 094°57'0 1.2
2017-Nov-10 19:30N 29°38' W 094°58'2 4.0
2017-Nov-10 19:00N 29°37' W 094°60'2 4.5
2017-Nov-10 18:29N 29°38' W 094°57'0 0.0
2017-Nov-10 17:49N 29°38' W 094°57'0 0.0
2017-Nov-10 17:28N 29°38' W 094°57'0 0.0
2017-Nov-10 16:59N 29°38' W 094°57'0 0.0
2017-Nov-10 16:28N 29°38' W 094°57'0 0.0
2017-Nov-10 15:55N 29°38' W 094°57'0 0.0
2017-Nov-10 15:21N 29°38' W 094°57'0 0.1
2017-Nov-10 14:58N 29°38' W 094°57'0 0.2
2017-Nov-10 14:30N 29°38' W 094°57'0 0.2
2017-Nov-10 14:00N 29°38' W 094°57'0 0.0
2017-Nov-10 13:29N 29°38' W 094°57'0 0.0
2017-Nov-10 12:59N 29°38' W 094°57'0 0.0
2017-Nov-10 12:29N 29°38' W 094°57'0 0.0
2017-Nov-10 12:00N 29°38' W 094°57'0 0.0
2017-Nov-10 11:24N 29°38' W 094°57'0 0.0
2017-Nov-10 10:59N 29°38' W 094°57'0 0.0
2017-Nov-10 10:25N 29°38' W 094°57'0 0.0
2017-Nov-10 09:59N 29°38' W 094°57'0 0.0
2017-Nov-10 09:10N 29°38' W 094°57'0 0.0
2017-Nov-10 08:53N 29°38' W 094°57'0 0.0
2017-Nov-10 08:29N 29°38' W 094°57'0 0.0
2017-Nov-10 07:56N 29°38' W 094°57'0 0.0
2017-Nov-10 07:30N 29°38' W 094°57'0 0.0
2017-Nov-10 06:48N 29°38' W 094°57'0 0.0
2017-Nov-10 06:28N 29°38' W 094°57'0 0.0
2017-Nov-10 06:00N 29°38' W 094°57'0 0.0
2017-Nov-10 05:30N 29°38' W 094°57'0 0.0
2017-Nov-10 05:00N 29°38' W 094°57'0 0.0
2017-Nov-10 04:29N 29°38' W 094°57'0 0.0
2017-Nov-10 03:58N 29°38' W 094°57'0 0.0
2017-Nov-10 03:27N 29°38' W 094°57'0 0.0
2017-Nov-10 02:59N 29°38' W 094°57'0 0.0
2017-Nov-10 02:29N 29°38' W 094°57'0 0.0
2017-Nov-10 01:57N 29°38' W 094°57'0 0.0
2017-Nov-10 01:30N 29°38' W 094°57'0 0.0
2017-Nov-10 01:00N 29°38' W 094°57'0 0.0
2017-Nov-10 00:22N 29°38' W 094°57'0 0.0
2017-Nov-09 23:58N 29°38' W 094°57'0 0.0
2017-Nov-09 23:30N 29°38' W 094°57'0 0.1
2017-Nov-09 22:58N 29°38' W 094°57'1 2.7
2017-Nov-09 22:30N 29°37' W 094°58'2 4.1
2017-Nov-09 22:00N 29°37' W 095°01'0 0.0
2017-Nov-09 21:30N 29°37' W 095°01'2 3.8
2017-Nov-09 21:00N 29°37' W 094°59'1 2.9
2017-Nov-09 20:30N 29°38' W 094°57'0 0.0
2017-Nov-09 19:57N 29°38' W 094°57'0 0.0
2017-Nov-09 19:30N 29°38' W 094°57'0 0.0
2017-Nov-09 19:00N 29°38' W 094°57'0 0.0
2017-Nov-09 18:30N 29°38' W 094°57'2 4.4
2017-Nov-09 18:00N 29°37' W 094°60'1 2.7
2017-Nov-09 17:30N 29°37' W 094°58'1 1.5
2017-Nov-09 16:55N 29°38' W 094°57'0 0.0
2017-Nov-09 16:28N 29°38' W 094°57'2 4.1
2017-Nov-09 16:00N 29°37' W 094°59'1 2.9
2017-Nov-09 15:30N 29°37' W 095°01'3 5.8
2017-Nov-09 15:00N 29°38' W 094°58'0 0.6
2017-Nov-09 14:30N 29°38' W 094°57'0 0.0
2017-Nov-09 14:00N 29°38' W 094°57'0 0.0
2017-Nov-09 13:30N 29°38' W 094°57'0 0.0
2017-Nov-09 12:57N 29°38' W 094°57'0 0.0
2017-Nov-09 12:29N 29°38' W 094°57'0 0.0
2017-Nov-09 12:00N 29°38' W 094°57'0 0.0
2017-Nov-09 11:29N 29°38' W 094°57'0 0.0
2017-Nov-09 11:00N 29°38' W 094°57'0 0.0
2017-Nov-09 10:30N 29°38' W 094°57'0 0.0
2017-Nov-09 09:59N 29°38' W 094°57'0 0.0
2017-Nov-09 09:30N 29°38' W 094°57'0 0.0
2017-Nov-09 09:00N 29°38' W 094°57'0 0.0
2017-Nov-09 08:27N 29°38' W 094°57'0 0.0
2017-Nov-09 07:58N 29°38' W 094°57'0 0.0
2017-Nov-09 07:30N 29°38' W 094°57'0 0.0
2017-Nov-09 06:56N 29°38' W 094°57'0 0.0
2017-Nov-09 06:28N 29°38' W 094°57'0 0.0
2017-Nov-09 05:58N 29°38' W 094°57'0 0.3
2017-Nov-09 05:30N 29°38' W 094°57'0 0.1
2017-Nov-09 02:36N 29°38' W 094°57'0 0.0
2017-Nov-09 02:30N 29°38' W 094°57'0 0.0
2017-Nov-09 02:00N 29°38' W 094°57'0 0.0
2017-Nov-09 01:30N 29°38' W 094°57'0 0.0
2017-Nov-09 00:40N 29°38' W 094°57'0 0.0
2017-Nov-09 00:30N 29°38' W 094°57'1 2.9
2017-Nov-09 00:01N 29°37' W 094°59'0 0.1
2017-Nov-08 23:30N 29°37' W 094°59'1 2.8
2017-Nov-08 22:59N 29°38' W 094°57'0 0.0
2017-Nov-08 22:30N 29°38' W 094°57'0 0.7
2017-Nov-08 22:00N 29°38' W 094°57'1 1.8
2017-Nov-08 21:30N 29°37' W 094°58'2 4.9
2017-Nov-08 21:00N 29°37' W 095°01'0 0.4
2017-Nov-08 20:31N 29°37' W 095°01'0 0.0
2017-Nov-08 20:00N 29°37' W 095°01'0 0.0
2017-Nov-08 19:30N 29°37' W 095°01'0 0.0
2017-Nov-08 19:00N 29°37' W 095°01'0 0.0
2017-Nov-08 18:30N 29°37' W 095°01'1 1.8
2017-Nov-08 18:00N 29°37' W 094°60'2 3.9
2017-Nov-08 17:31N 29°37' W 094°58'3 5.6
2017-Nov-08 17:00N 29°37' W 095°01'0 0.0
2017-Nov-08 16:31N 29°37' W 095°01'0 0.0
2017-Nov-08 16:00N 29°37' W 095°01'0 0.0
2017-Nov-08 15:30N 29°37' W 095°01'0 0.0
2017-Nov-08 15:01N 29°37' W 095°01'0 0.0
2017-Nov-08 14:30N 29°37' W 095°01'3 5.8
2017-Nov-08 13:58N 29°38' W 094°57'2 3.7
2017-Nov-08 13:30N 29°37' W 094°59'2 3.1
2017-Nov-08 13:00N 29°37' W 095°01'0 0.0
2017-Nov-08 12:31N 29°37' W 095°01'0 0.0
2017-Nov-08 12:00N 29°37' W 095°01'0 0.0
2017-Nov-08 11:31N 29°37' W 095°01'0 0.0
2017-Nov-08 11:00N 29°37' W 095°01'0 0.0
2017-Nov-08 10:31N 29°37' W 095°01'0 0.0
2017-Nov-08 10:00N 29°37' W 095°01'0 0.0
2017-Nov-08 09:31N 29°37' W 095°01'0 0.0
2017-Nov-08 09:00N 29°37' W 095°01'0 0.0
2017-Nov-08 08:30N 29°37' W 095°01'0 0.0
2017-Nov-08 08:00N 29°37' W 095°01'0 0.0
2017-Nov-08 07:30N 29°37' W 095°01'0 0.0
2017-Nov-08 07:01N 29°37' W 095°01'0 0.0
2017-Nov-08 06:30N 29°37' W 095°01'0 0.0
2017-Nov-08 06:00N 29°37' W 095°01'0 0.0
2017-Nov-08 05:31N 29°37' W 095°01'0 0.0
2017-Nov-08 05:00N 29°37' W 095°01'0 0.0
2017-Nov-08 04:30N 29°37' W 095°01'0 0.0
2017-Nov-08 04:01N 29°37' W 095°01'0 0.0
2017-Nov-08 03:30N 29°37' W 095°01'0 0.0
2017-Nov-08 03:01N 29°37' W 095°01'0 0.0
2017-Nov-08 02:30N 29°37' W 095°01'0 0.0
2017-Nov-08 02:01N 29°37' W 095°01'0 0.0
2017-Nov-08 01:30N 29°37' W 095°01'0 0.0
2017-Nov-08 01:00N 29°37' W 095°01'0 0.0
2017-Nov-08 00:30N 29°37' W 095°01'0 0.0
2017-Nov-08 00:00N 29°37' W 095°01'0 0.0
2017-Nov-07 23:30N 29°37' W 095°01'0 0.0
2017-Nov-07 23:01N 29°37' W 095°01'0 0.0
2017-Nov-07 22:30N 29°37' W 095°01'0 0.0
2017-Nov-07 22:01N 29°37' W 095°01'0 0.0
2017-Nov-07 21:31N 29°37' W 095°01'0 0.0
2017-Nov-07 21:00N 29°37' W 095°01'0 0.0
2017-Nov-07 20:30N 29°37' W 095°01'0 0.0
2017-Nov-07 20:00N 29°37' W 095°01'0 0.0
2017-Nov-07 19:30N 29°37' W 095°01'0 0.0
2017-Nov-07 19:01N 29°37' W 095°01'0 0.0
2017-Nov-07 18:31N 29°37' W 095°01'0 0.0
2017-Nov-07 18:00N 29°37' W 095°01'0 0.0
2017-Nov-07 17:30N 29°37' W 095°01'0 0.0
2017-Nov-07 17:00N 29°37' W 095°01'0 0.0
2017-Nov-07 16:31N 29°37' W 095°01'0 0.0
2017-Nov-07 16:00N 29°37' W 095°01'0 0.0
2017-Nov-07 15:31N 29°37' W 095°01'0 0.0
2017-Nov-07 15:01N 29°37' W 095°01'0 0.0
2017-Nov-07 14:30N 29°37' W 095°01'0 0.0
2017-Nov-07 14:00N 29°37' W 095°01'0 0.0
2017-Nov-07 13:31N 29°37' W 095°01'0 0.0
2017-Nov-07 13:01N 29°37' W 095°01'0 0.0
2017-Nov-07 12:31N 29°37' W 095°01'0 0.0
2017-Nov-07 12:01N 29°37' W 095°01'0 0.0
2017-Nov-07 11:30N 29°37' W 095°01'0 0.0
2017-Nov-07 11:01N 29°37' W 095°01'0 0.0
2017-Nov-07 10:31N 29°37' W 095°01'0 0.0
2017-Nov-07 10:00N 29°37' W 095°01'0 0.0
2017-Nov-07 09:30N 29°37' W 095°01'0 0.0
2017-Nov-07 09:01N 29°37' W 095°01'0 0.0
2017-Nov-07 08:30N 29°37' W 095°01'0 0.0
2017-Nov-07 08:01N 29°37' W 095°01'0 0.0
2017-Nov-07 07:30N 29°37' W 095°01'0 0.0
2017-Nov-07 07:01N 29°37' W 095°01'0 0.0
2017-Nov-07 06:31N 29°37' W 095°01'0 0.0
2017-Nov-07 06:01N 29°37' W 095°01'0 0.0
2017-Nov-07 05:31N 29°37' W 095°01'0 0.0
2017-Nov-07 05:01N 29°37' W 095°01'0 0.0
2017-Nov-07 04:30N 29°37' W 095°01'0 0.0
2017-Nov-07 04:01N 29°37' W 095°01'0 0.0
2017-Nov-07 03:31N 29°37' W 095°01'0 0.0
2017-Nov-07 03:00N 29°37' W 095°01'0 0.0
2017-Nov-07 02:31N 29°37' W 095°01'0 0.0
2017-Nov-07 02:00N 29°37' W 095°01'0 0.0
2017-Nov-07 01:31N 29°37' W 095°01'0 0.0
2017-Nov-07 01:00N 29°37' W 095°01'0 0.0
2017-Nov-07 00:31N 29°37' W 095°01'0 0.0
2017-Nov-07 00:01N 29°37' W 095°01'0 0.0
2017-Nov-06 23:30N 29°37' W 095°01'0 0.0
2017-Nov-06 23:01N 29°37' W 095°01'0 0.0
2017-Nov-06 22:30N 29°37' W 095°01'0 0.0
2017-Nov-06 22:01N 29°37' W 095°01'0 0.2
2017-Nov-06 21:31N 29°37' W 095°01'1 1.6
2017-Nov-06 21:01N 29°37' W 094°60'1 1.8
2017-Nov-06 20:31N 29°37' W 095°01'3 0.2
2017-Nov-06 02:28N 29°38' W 094°57'0 0.0
2017-Nov-06 02:00N 29°38' W 094°57'0 0.0
2017-Nov-06 01:29N 29°38' W 094°57'0 0.0
2017-Nov-06 01:00N 29°38' W 094°57'0 0.0
2017-Nov-06 00:26N 29°38' W 094°57'0 0.0
2017-Nov-05 23:59N 29°38' W 094°57'0 0.0
2017-Nov-05 23:24N 29°38' W 094°57'0 0.0
2017-Nov-05 23:00N 29°38' W 094°57'0 0.0
2017-Nov-05 22:29N 29°38' W 094°57'0 0.7
2017-Nov-05 22:01N 29°38' W 094°57'3 5.4
2017-Nov-05 21:31N 29°37' W 095°00'1 1.1
2017-Nov-05 21:00N 29°37' W 095°01'0 0.0
2017-Nov-05 20:30N 29°37' W 095°01'2 4.1
2017-Nov-05 20:01N 29°37' W 094°58'1 0.7
2017-Nov-05 18:09N 29°38' W 094°57'0 0.1
2017-Nov-05 17:59N 29°38' W 094°57'0 0.6
2017-Nov-05 17:30N 29°38' W 094°57'0 0.5
2017-Nov-05 16:59N 29°38' W 094°57'0 0.2
2017-Nov-05 16:30N 29°38' W 094°57'0 0.1
2017-Nov-05 15:57N 29°38' W 094°57'0 0.1
2017-Nov-05 15:30N 29°38' W 094°57'0 0.0
2017-Nov-05 14:58N 29°38' W 094°57'0 0.0
2017-Nov-05 14:31N 29°38' W 094°57'0 0.0
2017-Nov-05 14:00N 29°38' W 094°57'0 0.0
2017-Nov-05 13:31N 29°38' W 094°57'0 0.0
2017-Nov-05 12:59N 29°38' W 094°57'1 1.9
2017-Nov-05 12:31N 29°37' W 094°58'2 4.8
2017-Nov-05 12:01N 29°37' W 095°01'0 0.0
2017-Nov-05 11:31N 29°37' W 095°01'0 0.0
2017-Nov-05 11:01N 29°37' W 095°01'0 0.0
2017-Nov-05 10:31N 29°37' W 095°01'0 0.0
2017-Nov-05 10:00N 29°37' W 095°01'0 0.0
2017-Nov-05 09:30N 29°37' W 095°01'0 0.0
2017-Nov-05 09:00N 29°37' W 095°01'0 0.0
2017-Nov-05 08:30N 29°37' W 095°01'0 0.0
2017-Nov-05 08:01N 29°37' W 095°01'0 0.0
2017-Nov-05 07:30N 29°37' W 095°01'0 0.0
2017-Nov-05 07:01N 29°37' W 095°01'0 0.0
2017-Nov-05 06:30N 29°37' W 095°01'0 0.0
2017-Nov-05 06:01N 29°37' W 095°01'0 0.0
2017-Nov-05 05:31N 29°37' W 095°01'0 0.0
2017-Nov-05 05:00N 29°37' W 095°01'0 0.0
2017-Nov-05 04:31N 29°37' W 095°01'0 0.0
2017-Nov-05 04:01N 29°37' W 095°01'0 0.0
2017-Nov-05 03:31N 29°37' W 095°01'0 0.0
2017-Nov-05 03:00N 29°37' W 095°01'0 0.0
2017-Nov-05 02:31N 29°37' W 095°01'0 0.0
2017-Nov-05 02:01N 29°37' W 095°01'0 0.0
2017-Nov-05 01:31N 29°37' W 095°01'0 0.0
2017-Nov-05 01:01N 29°37' W 095°01'0 0.0
2017-Nov-05 00:31N 29°37' W 095°01'0 0.0
2017-Nov-05 00:01N 29°37' W 095°01'0 0.0
2017-Nov-04 23:31N 29°37' W 095°01'2 4.1
2017-Nov-04 23:01N 29°37' W 094°58'1 2.5
2017-Nov-04 22:30N 29°38' W 094°57'0 0.0
2017-Nov-04 22:00N 29°38' W 094°57'0 0.0
2017-Nov-04 21:31N 29°38' W 094°57'0 0.0
2017-Nov-04 21:00N 29°38' W 094°57'0 0.0
2017-Nov-04 20:29N 29°38' W 094°57'0 0.0
2017-Nov-04 19:58N 29°38' W 094°57'0 0.2
2017-Nov-04 19:30N 29°38' W 094°57'0 0.0
2017-Nov-04 19:00N 29°38' W 094°57'0 0.0
2017-Nov-04 18:19N 29°38' W 094°57'0 0.1
2017-Nov-04 17:56N 29°38' W 094°57'0 0.0
2017-Nov-04 17:30N 29°38' W 094°57'0 0.0
2017-Nov-04 17:00N 29°38' W 094°57'0 0.0
2017-Nov-04 16:30N 29°38' W 094°57'0 0.2
2017-Nov-04 16:01N 29°38' W 094°57'0 0.0
2017-Nov-04 15:31N 29°38' W 094°57'0 0.0
2017-Nov-04 15:00N 29°38' W 094°57'0 0.0
2017-Nov-04 14:30N 29°38' W 094°57'0 0.0
2017-Nov-04 14:00N 29°38' W 094°57'0 0.0
2017-Nov-04 13:28N 29°38' W 094°57'1 2.9
2017-Nov-04 13:00N 29°37' W 094°59'0 0.4
2017-Nov-04 12:30N 29°37' W 094°59'2 1.4
2017-Nov-04 11:25N 29°38' W 094°57'0 0.0
2017-Nov-04 05:30N 29°38' W 094°57'0 0.0
2017-Nov-04 04:24N 29°38' W 094°57'0 0.0
2017-Nov-04 04:01N 29°38' W 094°57'0 0.0
2017-Nov-04 03:29N 29°38' W 094°57'0 0.0
2017-Nov-04 02:54N 29°38' W 094°57'0 0.0
2017-Nov-04 02:24N 29°38' W 094°57'0 0.0
2017-Nov-04 01:59N 29°38' W 094°57'0 0.0
2017-Nov-04 01:28N 29°38' W 094°57'0 0.0
2017-Nov-04 00:59N 29°38' W 094°57'0 0.0
2017-Nov-04 00:29N 29°38' W 094°57'0 0.0
2017-Nov-03 22:50N 29°38' W 094°57'0 0.0
2017-Nov-03 22:31N 29°38' W 094°57'0 0.0
2017-Nov-03 21:51N 29°38' W 094°57'0 0.0
2017-Nov-03 21:30N 29°38' W 094°57'0 0.0
2017-Nov-03 21:00N 29°38' W 094°57'0 0.0
2017-Nov-03 20:31N 29°38' W 094°57'0 0.0
2017-Nov-03 19:52N 29°38' W 094°57'0 0.0
2017-Nov-03 19:31N 29°38' W 094°57'0 0.0
2017-Nov-03 19:00N 29°38' W 094°57'0 0.0
2017-Nov-03 18:28N 29°38' W 094°57'0 0.0
2017-Nov-03 16:59N 29°38' W 094°57'0 0.0
2017-Nov-03 16:30N 29°38' W 094°57'1 2.3
2017-Nov-03 16:00N 29°37' W 094°58'2 4.4
2017-Nov-03 15:30N 29°37' W 095°01'0 0.0
2017-Nov-03 15:00N 29°37' W 095°01'0 0.0
2017-Nov-03 14:30N 29°37' W 095°01'0 0.0
2017-Nov-03 14:00N 29°37' W 095°01'2 3.4
2017-Nov-03 13:30N 29°37' W 094°59'1 1.0
2017-Nov-03 13:00N 29°37' W 094°58'2 4.5
2017-Nov-03 12:30N 29°37' W 095°01'0 0.1
2017-Nov-03 12:00N 29°37' W 095°01'0 0.0
2017-Nov-03 11:30N 29°37' W 095°01'0 0.0
2017-Nov-03 11:00N 29°37' W 095°01'0 0.0
2017-Nov-03 10:30N 29°37' W 095°01'0 0.0
2017-Nov-03 10:00N 29°37' W 095°01'0 0.0
2017-Nov-03 09:30N 29°37' W 095°01'0 0.0
2017-Nov-03 09:00N 29°37' W 095°01'0 0.0
2017-Nov-03 08:30N 29°37' W 095°01'0 0.0
2017-Nov-03 08:00N 29°37' W 095°01'0 0.0
2017-Nov-03 07:30N 29°37' W 095°01'0 0.0
2017-Nov-03 07:00N 29°37' W 095°01'0 0.0
2017-Nov-03 06:30N 29°37' W 095°01'0 0.0
2017-Nov-03 06:00N 29°37' W 095°01'0 0.0
2017-Nov-03 05:30N 29°37' W 095°01'0 0.0
2017-Nov-03 05:00N 29°37' W 095°01'0 0.0
2017-Nov-03 04:30N 29°37' W 095°01'0 0.0
2017-Nov-03 04:00N 29°37' W 095°01'0 0.0
2017-Nov-03 03:30N 29°37' W 095°01'0 0.0
2017-Nov-03 03:01N 29°37' W 095°01'0 0.0
2017-Nov-03 02:30N 29°37' W 095°01'0 0.0
2017-Nov-03 02:00N 29°37' W 095°01'0 0.0
2017-Nov-03 01:30N 29°37' W 095°01'0 0.0
2017-Nov-03 01:00N 29°37' W 095°01'0 0.0
2017-Nov-03 00:30N 29°37' W 095°01'0 0.0
2017-Nov-03 00:00N 29°37' W 095°01'0 0.0
2017-Nov-02 23:30N 29°37' W 095°01'1 1.7
2017-Nov-02 23:00N 29°37' W 094°60'2 4.5
2017-Nov-02 22:29N 29°38' W 094°57'0 0.2
2017-Nov-02 22:00N 29°38' W 094°57'0 0.0
2017-Nov-02 21:27N 29°38' W 094°57'0 0.0
2017-Nov-02 21:00N 29°38' W 094°57'0 0.0
2017-Nov-02 20:28N 29°38' W 094°57'0 0.0
2017-Nov-02 20:00N 29°38' W 094°57'1 1.1
2017-Nov-02 19:30N 29°38' W 094°58'0 0.8
2017-Nov-02 19:00N 29°38' W 094°58'3 5.7
2017-Nov-02 18:30N 29°40' W 094°59'2 2.9
2017-Nov-02 17:57N 29°42' W 094°60'0 0.6
2017-Nov-02 17:28N 29°42' W 094°59'0 0.2
2017-Nov-02 17:00N 29°42' W 094°59'0 0.2
2017-Nov-02 16:30N 29°42' W 094°59'0 0.2
2017-Nov-02 16:00N 29°41' W 094°59'1 1.8
2017-Nov-02 15:30N 29°41' W 094°59'1 2.0
2017-Nov-02 15:01N 29°40' W 094°58'1 2.4
2017-Nov-02 14:29N 29°38' W 094°58'1 1.7
2017-Nov-02 14:00N 29°38' W 094°57'0 0.3
2017-Nov-02 13:30N 29°38' W 094°57'0 0.0
2017-Nov-02 13:00N 29°38' W 094°57'2 4.6
2017-Nov-02 12:30N 29°37' W 094°60'0 0.2
2017-Nov-02 12:00N 29°37' W 094°60'2 4.0
2017-Nov-02 11:25N 29°38' W 094°57'0 0.3
2017-Nov-02 10:56N 29°38' W 094°57'0 0.0
2017-Nov-02 10:28N 29°38' W 094°57'0 0.0
2017-Nov-02 09:56N 29°38' W 094°57'0 0.0
2017-Nov-02 09:22N 29°38' W 094°57'0 0.0
2017-Nov-02 08:35N 29°38' W 094°57'0 0.0
2017-Nov-02 08:29N 29°38' W 094°57'0 0.0
2017-Nov-02 07:33N 29°38' W 094°57'0 0.0
2017-Nov-02 07:25N 29°38' W 094°57'0 0.0
2017-Nov-02 06:43N 29°38' W 094°57'0 0.0
2017-Nov-02 06:26N 29°38' W 094°57'0 0.0
2017-Nov-02 06:00N 29°38' W 094°57'0 0.0
2017-Nov-02 05:25N 29°38' W 094°57'  

Dump ship's entire track history